Time;durP1;ratioP1;P1;durP2;ratioP2;P2;SDS_P1;SDS_P2;PMS_P1;PMS_P2;Temp;Humidity;BMP_temperature;BMP_pressure;BME280_temperature;BME280_humidity;BME280_pressure;Samples;Min_cycle;Max_cycle;Signal;HPM_P1;HPM_P2
2022/12/17 13:06:13;;;;;;;18.40;10.40;;;15.40;55.50;;;;;;4899534;29;20048;-80
2022/12/17 13:08:40;;;;;;;21.65;10.23;;;15.30;55.50;;;;;;4885857;29;20048;-76
2022/12/17 13:11:28;;;;;;;17.15;9.80;;;15.30;55.60;;;;;;4901039;29;20067;-75
2022/12/17 13:13:59;;;;;;;18.80;10.82;;;15.20;55.60;;;;;;4901342;29;20052;-73
2022/12/17 13:16:36;;;;;;;23.58;11.55;;;15.10;55.90;;;;;;4902886;29;20064;-74
2022/12/17 13:19:31;;;;;;;29.85;12.13;;;15.10;56.10;;;;;;4886558;29;20052;-76
2022/12/17 13:22:26;;;;;;;28.45;19.60;;;15.00;56.00;;;;;;4903323;29;20048;-76
2022/12/17 13:24:56;;;;;;;29.55;18.25;;;14.90;53.50;;;;;;4903659;29;20048;-76
2022/12/17 13:27:40;;;;;;;34.67;20.63;;;14.90;52.80;;;;;;4903052;29;20048;-76
2022/12/17 13:30:21;;;;;;;33.88;19.10;;;14.80;52.60;;;;;;4903546;29;20105;-77
2022/12/17 13:32:58;;;;;;;37.40;19.85;;;14.80;52.20;;;;;;4903423;29;20124;-76
2022/12/17 13:35:32;;;;;;;41.63;17.95;;;14.90;52.80;;;;;;4902031;29;20120;-73
2022/12/17 13:38:15;;;;;;;38.00;18.08;;;15.00;53.10;;;;;;4902736;29;20052;-73
2022/12/17 13:41:06;;;;;;;42.78;17.50;;;15.20;53.40;;;;;;4902126;29;20435;-72
2022/12/17 13:43:38;;;;;;;41.00;16.33;;;15.30;53.60;;;;;;4901984;29;20056;-73
2022/12/17 13:46:04;;;;;;;42.95;15.93;;;15.40;54.00;;;;;;4902114;29;20239;-73
2022/12/17 13:48:30;;;;;;;39.35;14.48;;;15.50;54.30;;;;;;4886172;29;20466;-75
2022/12/17 13:51:04;;;;;;;29.92;15.68;;;15.50;54.50;;;;;;4902738;29;20448;-72
2022/12/17 13:53:34;;;;;;;36.05;15.70;;;15.50;54.00;;;;;;4902772;29;20048;-73
2022/12/17 13:56:00;;;;;;;57.30;16.92;;;15.50;53.90;;;;;;4902693;29;20061;-73
2022/12/17 13:58:27;;;;;;;50.38;17.60;;;15.60;54.00;;;;;;4901689;29;20049;-73
2022/12/17 14:01:05;;;;;;;61.22;16.40;;;15.50;53.70;;;;;;4885364;29;20044;-73
2022/12/17 14:03:31;;;;;;;45.85;15.40;;;15.50;54.20;;;;;;4902655;29;20092;-73
2022/12/17 14:05:57;;;;;;;42.92;15.55;;;15.60;54.40;;;;;;4902540;29;20084;-75
2022/12/17 14:08:29;;;;;;;63.83;15.98;;;15.60;54.50;;;;;;4902062;29;20048;-72
2022/12/17 14:12:20;;;;;;;40.05;14.57;;;15.70;54.90;;;;;;4902433;29;20079;-72
2022/12/17 14:13:44;;;;;;;50.53;14.57;;;15.70;54.40;;;;;;4902479;29;20136;-75
2022/12/17 14:16:15;;;;;;;61.88;14.80;;;15.70;54.70;;;;;;4902556;29;20101;-73
2022/12/17 14:18:46;;;;;;;37.90;13.98;;;15.80;54.60;;;;;;4902037;29;20575;-73
2022/12/17 14:21:12;;;;;;;42.65;13.88;;;15.80;54.40;;;;;;4902571;29;20092;-74
2022/12/17 14:23:40;;;;;;;41.17;12.95;;;15.80;54.30;;;;;;4902652;29;20044;-74
2022/12/17 14:26:09;;;;;;;43.45;13.23;;;15.80;54.20;;;;;;4902257;29;20045;-74
2022/12/17 14:28:44;;;;;;;38.95;12.77;;;15.70;54.10;;;;;;4901749;29;20086;-73
2022/12/17 14:31:16;;;;;;;35.78;12.90;;;15.70;54.10;;;;;;4901875;29;20067;-73
2022/12/17 14:33:42;;;;;;;38.50;13.20;;;15.60;54.00;;;;;;4902024;29;20103;-72
2022/12/17 14:36:14;;;;;;;32.33;12.43;;;15.60;54.10;;;;;;4902011;29;20045;-73
2022/12/17 14:38:58;;;;;;;35.03;12.38;;;15.50;54.20;;;;;;4901804;29;20049;-74
2022/12/17 14:44:26;;;;;;;36.75;16.40;;;15.30;53.10;;;;;;4901472;29;20496;-73
2022/12/17 14:47:22;;;;;;;35.50;16.33;;;15.20;53.00;;;;;;4901161;29;20127;-74
2022/12/17 14:49:54;;;;;;;38.55;14.77;;;15.20;53.70;;;;;;4899360;29;20044;-72
2022/12/17 14:52:44;;;;;;;46.97;18.30;;;15.20;54.10;;;;;;4900646;29;20059;-74
2022/12/17 14:55:22;;;;;;;28.95;14.63;;;15.30;53.30;;;;;;4895466;29;20068;-71
2022/12/17 14:57:49;;;;;;;29.23;14.65;;;15.30;53.40;;;;;;4901069;29;20350;-73
2022/12/17 15:00:17;;;;;;;29.58;14.68;;;15.40;53.50;;;;;;4884080;29;20448;-73
2022/12/17 15:02:45;;;;;;;32.42;15.30;;;15.50;54.30;;;;;;4885414;29;20064;-73
2022/12/17 15:05:13;;;;;;;29.80;14.45;;;15.60;53.80;;;;;;4901926;29;20044;-73
2022/12/17 15:07:40;;;;;;;28.45;14.60;;;15.60;53.80;;;;;;4901178;29;20041;-72
2022/12/17 15:10:13;;;;;;;32.78;13.27;;;15.70;54.10;;;;;;4901508;29;20040;-71
2022/12/17 15:12:42;;;;;;;33.20;13.88;;;15.70;54.30;;;;;;4898960;29;20044;-71
2022/12/17 15:15:13;;;;;;;28.70;14.82;;;15.70;54.00;;;;;;4899171;29;20086;-74
2022/12/17 15:17:40;;;;;;;24.83;13.32;;;15.70;53.90;;;;;;4900701;29;20186;-75
2022/12/17 15:20:11;;;;;;;24.83;13.73;;;15.80;53.90;;;;;;4899689;29;20036;-74
2022/12/17 15:22:37;;;;;;;20.52;11.13;;;15.80;53.90;;;;;;4900713;29;20048;-75
2022/12/17 15:25:04;;;;;;;41.20;13.70;;;15.70;53.60;;;;;;4900264;29;20052;-76
2022/12/17 15:27:29;;;;;;;38.55;12.52;;;15.70;54.30;;;;;;4900347;29;20432;-76
2022/12/17 15:29:55;;;;;;;48.47;13.68;;;15.70;54.60;;;;;;4901582;29;20160;-76
2022/12/17 15:32:22;;;;;;;44.17;13.38;;;15.80;54.60;;;;;;4900648;29;20052;-77
2022/12/17 15:34:49;;;;;;;40.17;14.05;;;15.80;54.70;;;;;;4901059;29;20057;-78
2022/12/17 15:37:15;;;;;;;37.90;13.68;;;15.80;54.80;;;;;;4900890;29;20060;-77
2022/12/17 15:39:41;;;;;;;37.88;12.80;;;15.80;54.70;;;;;;4900776;29;20412;-77
2022/12/17 15:44:54;;;;;;;57.70;14.00;;;15.90;54.90;;;;;;4900781;29;20060;-80
2022/12/17 15:47:20;;;;;;;51.42;13.05;;;15.90;54.80;;;;;;4899000;29;20045;-76
2022/12/17 15:49:46;;;;;;;38.15;12.48;;;15.90;54.80;;;;;;4899549;29;20135;-78
2022/12/17 15:52:13;;;;;;;34.75;12.40;;;16.00;54.80;;;;;;4900584;29;20051;-79
2022/12/17 15:54:41;;;;;;;45.83;13.40;;;16.00;54.80;;;;;;4883801;29;20044;-79
2022/12/17 15:57:06;;;;;;;42.00;12.60;;;16.10;54.70;;;;;;4900343;29;20131;-79
2022/12/17 15:59:32;;;;;;;41.58;10.63;;;16.10;54.90;;;;;;4900314;29;20064;-77
2022/12/17 16:01:58;;;;;;;34.42;11.73;;;16.20;55.40;;;;;;4900627;29;20057;-79
2022/12/17 16:04:24;;;;;;;36.53;10.32;;;16.20;56.30;;;;;;4884198;29;20116;-77
2022/12/17 16:06:50;;;;;;;29.88;11.93;;;16.20;55.80;;;;;;4900893;29;20056;-80
2022/12/17 16:09:16;;;;;;;34.20;11.55;;;16.30;56.00;;;;;;4900519;29;20087;-79
2022/12/17 16:11:41;;;;;;;31.30;9.25;;;16.30;55.90;;;;;;4868333;29;20056;-81
2022/12/17 16:14:07;;;;;;;25.90;10.60;;;16.40;55.90;;;;;;4883482;29;20112;-82
2022/12/17 16:16:33;;;;;;;34.70;11.23;;;16.40;55.90;;;;;;4899578;29;20052;-81
2022/12/17 16:19:00;;;;;;;30.10;9.93;;;16.40;56.10;;;;;;4900399;29;20463;-79
2022/12/17 16:21:27;;;;;;;20.70;8.82;;;16.40;56.20;;;;;;4882874;29;20071;-78
2022/12/17 16:23:52;;;;;;;23.67;9.20;;;16.40;56.20;;;;;;4866920;29;20468;-78
2022/12/17 16:26:18;;;;;;;20.38;9.80;;;16.40;56.10;;;;;;4899968;29;20032;-77
2022/12/17 16:28:44;;;;;;;17.73;8.93;;;16.40;56.30;;;;;;4883832;29;20064;-80
2022/12/17 16:31:12;;;;;;;28.55;9.73;;;16.40;56.40;;;;;;4899431;29;20364;-78
2022/12/17 16:33:40;;;;;;;23.17;10.00;;;16.30;56.40;;;;;;4900476;29;20474;-78
2022/12/17 16:36:07;;;;;;;20.63;9.02;;;16.30;56.40;;;;;;4900237;29;20053;-78
2022/12/17 16:38:34;;;;;;;23.75;9.38;;;16.20;56.40;;;;;;4899623;29;20467;-79
2022/12/17 16:41:02;;;;;;;26.20;9.50;;;16.30;56.60;;;;;;4899690;29;20056;-79
2022/12/17 16:43:32;;;;;;;22.27;8.68;;;16.30;56.70;;;;;;4900018;29;20044;-78
2022/12/17 16:45:58;;;;;;;25.40;9.05;;;16.20;56.60;;;;;;4900031;29;20067;-78
2022/12/17 16:48:24;;;;;;;22.05;9.10;;;16.20;56.70;;;;;;4883676;29;20060;-77
2022/12/17 16:50:50;;;;;;;25.25;9.23;;;16.20;56.70;;;;;;4899616;29;20048;-77
2022/12/17 16:53:16;;;;;;;37.80;9.85;;;16.20;56.90;;;;;;4899326;29;20048;-71
2022/12/17 16:55:45;;;;;;;42.15;10.50;;;16.10;57.10;;;;;;4899295;29;20123;-78
2022/12/17 16:58:11;;;;;;;38.25;10.85;;;16.00;57.10;;;;;;4899627;29;20048;-79
2022/12/17 17:00:40;;;;;;;37.20;10.02;;;16.00;57.10;;;;;;4900342;29;20080;-79
2022/12/17 17:03:07;;;;;;;43.60;10.38;;;15.90;57.30;;;;;;4883340;29;20064;-78
2022/12/17 17:05:35;;;;;;;36.72;10.88;;;15.80;57.30;;;;;;4883288;29;20053;-78
2022/12/17 17:08:01;;;;;;;33.17;10.70;;;15.70;57.60;;;;;;4883305;29;20053;-77
2022/12/17 17:10:28;;;;;;;38.10;11.45;;;15.60;57.40;;;;;;4899046;29;20041;-70
2022/12/17 17:12:54;;;;;;;28.02;9.30;;;15.60;57.30;;;;;;4899106;29;20428;-77
2022/12/17 17:15:21;;;;;;;33.08;10.60;;;15.60;57.40;;;;;;4899719;29;20140;-76
2022/12/17 17:17:47;;;;;;;32.97;10.18;;;15.50;57.10;;;;;;4898466;29;20069;-78
2022/12/17 17:20:14;;;;;;;27.65;9.98;;;15.50;57.00;;;;;;4899418;29;20060;-79
2022/12/17 17:22:40;;;;;;;23.02;9.55;;;15.40;56.80;;;;;;4899264;29;20088;-77
2022/12/17 17:25:06;;;;;;;23.42;10.48;;;15.30;56.70;;;;;;4899042;29;20132;-76
2022/12/17 17:27:31;;;;;;;21.60;10.98;;;15.30;56.60;;;;;;4883280;29;20049;-79
2022/12/17 17:29:57;;;;;;;27.80;11.00;;;15.20;56.40;;;;;;4899444;29;20071;-77
2022/12/17 17:32:24;;;;;;;23.20;10.45;;;15.20;56.30;;;;;;4899683;29;20092;-77
2022/12/17 17:34:50;;;;;;;24.50;10.77;;;15.10;56.20;;;;;;4898949;29;20045;-77
2022/12/17 17:37:16;;;;;;;22.58;11.48;;;15.10;56.00;;;;;;4898835;29;20051;-76
2022/12/17 17:39:42;;;;;;;23.13;10.93;;;15.10;56.00;;;;;;4883088;29;20128;-78
2022/12/17 17:42:08;;;;;;;22.65;11.68;;;15.00;55.90;;;;;;4899321;29;20424;-77
2022/12/17 17:44:33;;;;;;;17.92;10.88;;;15.00;55.70;;;;;;4902902;29;20053;-76
2022/12/17 17:46:59;;;;;;;20.92;11.10;;;14.90;55.60;;;;;;4902830;29;20131;-78
2022/12/17 17:49:25;;;;;;;22.02;11.85;;;14.90;55.70;;;;;;4902762;29;20123;-77
2022/12/17 17:51:51;;;;;;;19.63;11.02;;;14.80;55.60;;;;;;4902671;29;20459;-78
2022/12/17 17:54:17;;;;;;;21.73;11.68;;;14.80;55.90;;;;;;4901817;29;20360;-77
2022/12/17 17:56:43;;;;;;;26.67;17.00;;;14.80;56.10;;;;;;4902568;29;20119;-76
2022/12/17 17:59:14;;;;;;;35.70;19.20;;;14.80;55.70;;;;;;4902691;29;20208;-77
2022/12/17 18:01:45;;;;;;;30.83;20.10;;;14.80;54.80;;;;;;4901898;29;20060;-78
2022/12/17 18:04:13;;;;;;;28.90;18.08;;;14.80;54.30;;;;;;4902258;29;20476;-78
2022/12/17 18:06:41;;;;;;;28.70;17.63;;;14.70;53.90;;;;;;4902537;29;20052;-77
2022/12/17 18:09:07;;;;;;;25.60;16.02;;;14.70;53.80;;;;;;4902836;29;20376;-77
2022/12/17 18:11:33;;;;;;;25.08;16.83;;;14.70;53.90;;;;;;4902490;29;20049;-78
2022/12/17 18:14:01;;;;;;;30.88;18.08;;;14.60;53.90;;;;;;4902125;29;20052;-75
2022/12/17 18:16:35;;;;;;;27.42;15.25;;;14.60;53.90;;;;;;4901937;29;20821;-79
2022/12/17 18:19:04;;;;;;;21.80;15.43;;;14.60;54.00;;;;;;4901879;29;20467;-76
2022/12/17 18:21:31;;;;;;;23.33;16.35;;;14.60;54.20;;;;;;4885709;29;20191;-77
2022/12/17 18:23:59;;;;;;;23.88;15.38;;;14.50;54.20;;;;;;4885281;29;20128;-77
2022/12/17 18:26:27;;;;;;;26.80;17.25;;;14.50;54.20;;;;;;4901853;29;20055;-75
2022/12/17 18:28:54;;;;;;;21.98;15.88;;;14.50;54.30;;;;;;4902534;29;20053;-77
2022/12/17 18:31:22;;;;;;;22.20;15.73;;;14.40;54.30;;;;;;4901845;29;20045;-77
2022/12/17 18:33:56;;;;;;;24.02;16.08;;;14.40;54.40;;;;;;4902574;29;20049;-76
2022/12/17 18:36:33;;;;;;;21.30;15.40;;;14.40;54.50;;;;;;4902088;29;20227;-76
2022/12/17 18:39:06;;;;;;;22.77;16.45;;;14.30;54.40;;;;;;4901897;29;20059;-76
2022/12/17 18:44:17;;;;;;;19.85;15.23;;;14.30;54.70;;;;;;4901681;29;20092;-77
2022/12/17 18:46:43;;;;;;;21.63;15.50;;;14.30;54.70;;;;;;4885349;29;20048;-78
2022/12/17 18:49:13;;;;;;;24.38;15.82;;;14.30;54.70;;;;;;4901984;29;20056;-77
2022/12/17 18:51:40;;;;;;;18.83;15.38;;;14.20;54.70;;;;;;4901875;29;20045;-77
2022/12/17 18:54:08;;;;;;;22.58;15.70;;;14.20;54.70;;;;;;4900864;29;20337;-76
2022/12/17 18:56:35;;;;;;;20.35;16.60;;;14.20;54.70;;;;;;4902159;29;20404;-76
2022/12/17 18:59:01;;;;;;;22.30;16.13;;;14.20;54.80;;;;;;4885270;29;20067;-77
2022/12/17 19:01:32;;;;;;;20.40;15.23;;;14.20;54.80;;;;;;4901479;29;20059;-76
2022/12/17 19:04:04;;;;;;;19.45;14.73;;;14.20;54.80;;;;;;4901748;29;20376;-76
2022/12/17 19:06:31;;;;;;;22.17;15.70;;;14.20;54.80;;;;;;4901370;29;20147;-77
2022/12/17 19:08:57;;;;;;;20.85;15.82;;;14.10;54.80;;;;;;4901549;29;20087;-76
2022/12/17 19:11:23;;;;;;;19.13;15.73;;;14.10;54.80;;;;;;4901471;29;20097;-76
2022/12/17 19:13:49;;;;;;;21.55;15.73;;;14.10;54.80;;;;;;4901546;29;20413;-77
2022/12/17 19:16:18;;;;;;;20.33;15.63;;;14.10;54.80;;;;;;4884977;29;20496;-76
2022/12/17 19:18:49;;;;;;;21.88;16.23;;;14.10;54.80;;;;;;4900797;29;20048;-77
2022/12/17 19:21:15;;;;;;;21.55;15.60;;;14.10;54.80;;;;;;4900591;29;20052;-76
2022/12/17 19:23:41;;;;;;;21.33;16.48;;;14.00;54.90;;;;;;4894569;29;20070;-77
2022/12/17 19:26:16;;;;;;;19.08;14.50;;;14.00;54.90;;;;;;4901457;29;20088;-78
2022/12/17 19:28:47;;;;;;;17.42;14.30;;;14.00;54.90;;;;;;4901337;29;20048;-76
2022/12/17 19:31:14;;;;;;;19.60;16.00;;;14.00;54.90;;;;;;4901166;29;20049;-76
2022/12/17 19:33:40;;;;;;;20.30;15.10;;;14.00;55.00;;;;;;4901013;29;20460;-76
2022/12/17 19:36:10;;;;;;;19.95;15.30;;;13.90;54.90;;;;;;4900669;29;20058;-75
2022/12/17 19:38:36;;;;;;;21.55;15.77;;;14.00;55.00;;;;;;4900209;29;20368;-77
2022/12/17 19:41:07;;;;;;;18.65;15.05;;;14.00;55.10;;;;;;4900802;29;20100;-77
2022/12/17 19:43:33;;;;;;;19.15;15.45;;;14.00;55.10;;;;;;4901021;29;20051;-77
2022/12/17 19:46:07;;;;;;;20.52;16.25;;;13.90;55.10;;;;;;4901154;29;20053;-77
2022/12/17 19:48:34;;;;;;;20.17;15.35;;;13.90;55.10;;;;;;4884047;29;20338;-77
2022/12/17 19:51:01;;;;;;;19.88;15.68;;;13.90;55.20;;;;;;4900585;29;20051;-78
2022/12/17 19:53:28;;;;;;;20.45;15.93;;;13.80;55.10;;;;;;4867753;29;20072;-76
2022/12/17 19:56:07;;;;;;;19.70;15.35;;;13.90;55.20;;;;;;4900758;29;20059;-76
2022/12/17 19:58:33;;;;;;;19.67;15.25;;;13.80;55.10;;;;;;4900645;29;20049;-76
2022/12/17 20:01:16;;;;;;;20.77;16.33;;;13.80;55.20;;;;;;4884366;29;20131;-76
2022/12/17 20:03:44;;;;;;;24.15;16.30;;;13.80;55.30;;;;;;4900451;29;20404;-76
2022/12/17 20:06:11;;;;;;;26.45;17.77;;;13.80;55.40;;;;;;4883075;29;20433;-75
2022/12/17 20:08:40;;;;;;;24.17;16.92;;;13.70;55.50;;;;;;4901064;29;20053;-78
2022/12/17 20:11:31;;;;;;;25.77;16.10;;;13.70;55.60;;;;;;4900471;29;20060;-77
2022/12/17 20:13:58;;;;;;;29.23;16.80;;;13.70;55.70;;;;;;4883632;29;20139;-76
2022/12/17 20:16:24;;;;;;;34.88;23.52;;;13.70;55.70;;;;;;4887735;29;20071;-73
2022/12/17 20:18:50;;;;;;;40.28;29.02;;;13.70;54.50;;;;;;4900271;29;20072;-78
2022/12/17 20:21:16;;;;;;;39.58;29.23;;;13.60;52.30;;;;;;4898882;29;20075;-79
2022/12/17 20:23:44;;;;;;;37.38;25.85;;;13.60;50.40;;;;;;4916058;29;20371;-77
2022/12/17 20:26:10;;;;;;;39.88;25.13;;;13.50;49.80;;;;;;4903170;29;20072;-78
2022/12/17 20:28:37;;;;;;;33.80;24.63;;;13.50;50.10;;;;;;4904477;29;20036;-78
2022/12/17 20:31:03;;;;;;;31.33;23.83;;;13.50;51.00;;;;;;4900012;29;20041;-79
2022/12/17 20:33:29;;;;;;;33.63;22.80;;;13.50;51.60;;;;;;4900145;29;20059;-74
2022/12/17 20:36:01;;;;;;;30.92;22.17;;;13.50;52.80;;;;;;4898835;29;20048;-76
2022/12/17 20:38:27;;;;;;;35.75;21.73;;;13.50;52.90;;;;;;4899875;29;20197;-72
2022/12/17 20:40:53;;;;;;;28.63;20.95;;;13.40;52.20;;;;;;4899806;29;20139;-72
2022/12/17 20:43:18;;;;;;;30.77;20.48;;;13.40;52.30;;;;;;4899504;29;20164;-72
2022/12/17 20:45:53;;;;;;;29.10;18.77;;;13.40;52.60;;;;;;4900551;29;20055;-74
2022/12/17 20:48:22;;;;;;;26.60;18.77;;;13.40;52.60;;;;;;4899776;29;20105;-73
2022/12/17 20:50:48;;;;;;;30.77;20.35;;;13.40;53.00;;;;;;4899519;29;20471;-73
2022/12/17 20:53:15;;;;;;;26.73;19.10;;;13.40;53.10;;;;;;4900052;29;20093;-74
2022/12/17 20:55:41;;;;;;;25.80;19.50;;;13.40;53.50;;;;;;4883247;29;20063;-73
2022/12/17 20:58:07;;;;;;;28.30;18.77;;;13.40;53.70;;;;;;4883463;29;20359;-73
2022/12/17 21:00:32;;;;;;;26.17;19.02;;;13.40;53.90;;;;;;4899801;29;20044;-75
2022/12/17 21:02:58;;;;;;;28.92;19.40;;;13.40;54.10;;;;;;4899740;29;20048;-74
2022/12/17 21:05:25;;;;;;;28.80;18.52;;;13.40;54.40;;;;;;4899387;29;20048;-74
2022/12/17 21:07:51;;;;;;;28.02;17.63;;;13.40;54.30;;;;;;4899956;29;20055;-73
2022/12/17 21:10:18;;;;;;;21.23;15.68;;;13.40;54.20;;;;;;4883356;29;20440;-74
2022/12/17 21:15:31;;;;;;;27.58;18.60;;;13.30;53.90;;;;;;4899661;29;20061;-74
2022/12/17 21:17:56;;;;;;;28.45;17.10;;;13.30;53.90;;;;;;4902533;29;20109;-73
2022/12/17 21:20:23;;;;;;;25.52;16.55;;;13.30;53.70;;;;;;4902019;29;20044;-73
2022/12/17 21:22:49;;;;;;;24.42;17.42;;;13.30;53.80;;;;;;4902868;29;20049;-72
2022/12/17 21:25:14;;;;;;;24.40;16.02;;;13.30;54.00;;;;;;4903081;29;20059;-73
2022/12/17 21:27:40;;;;;;;26.50;16.50;;;13.30;54.20;;;;;;4903099;29;20048;-72
2022/12/17 21:30:07;;;;;;;24.55;16.65;;;13.30;54.30;;;;;;4902617;29;20087;-72
2022/12/17 21:32:32;;;;;;;25.90;17.80;;;13.30;54.50;;;;;;4902434;29;20048;-72
2022/12/17 21:34:58;;;;;;;24.95;17.40;;;13.20;54.50;;;;;;4902543;29;20048;-72
2022/12/17 21:37:24;;;;;;;36.85;19.83;;;13.20;54.70;;;;;;4902575;29;20463;-73
2022/12/17 21:40:03;;;;;;;31.35;20.23;;;13.20;54.30;;;;;;4902706;29;20044;-73
2022/12/17 21:45:13;;;;;;;42.08;24.45;;;13.10;51.90;;;;;;4901655;29;20048;-74
2022/12/17 21:47:39;;;;;;;45.35;26.17;;;13.10;51.10;;;;;;4902312;29;20051;-73
2022/12/17 21:50:05;;;;;;;45.92;25.15;;;13.00;50.60;;;;;;4902237;29;20123;-73
2022/12/17 21:52:30;;;;;;;48.72;27.08;;;12.90;50.10;;;;;;4901714;29;20464;-73
2022/12/17 21:54:56;;;;;;;43.03;26.15;;;12.90;49.70;;;;;;4899094;29;20116;-73
2022/12/17 21:57:22;;;;;;;42.33;26.60;;;12.80;49.60;;;;;;4901871;29;20108;-74
2022/12/17 21:59:48;;;;;;;36.60;26.55;;;12.80;49.10;;;;;;4899159;29;20048;-73
2022/12/17 22:02:13;;;;;;;41.85;27.55;;;12.70;48.80;;;;;;4902024;29;20051;-73
2022/12/17 22:04:39;;;;;;;46.38;28.30;;;12.70;48.40;;;;;;4902190;29;20040;-73
2022/12/17 22:07:05;;;;;;;45.10;27.90;;;12.70;48.10;;;;;;4902024;29;20084;-80
